sensor_id;sensor_type;location;lat;lon;timestamp;P1;durP1;ratioP1;P2;durP2;ratioP2
18804;SDS011;9530;48.930;9.526;2022-07-29T00:01:35;6.03;;;4.20;;
18804;SDS011;9530;48.930;9.526;2022-07-29T00:04:02;6.37;;;4.17;;
18804;SDS011;9530;48.930;9.526;2022-07-29T00:06:30;5.67;;;4.20;;
18804;SDS011;9530;48.930;9.526;2022-07-29T00:08:56;4.63;;;3.90;;
18804;SDS011;9530;48.930;9.526;2022-07-29T00:11:23;5.33;;;4.77;;
18804;SDS011;9530;48.930;9.526;2022-07-29T00:13:50;5.30;;;4.10;;
18804;SDS011;9530;48.930;9.526;2022-07-29T00:16:16;5.80;;;4.30;;
18804;SDS011;9530;48.930;9.526;2022-07-29T00:18:43;6.07;;;4.07;;
18804;SDS011;9530;48.930;9.526;2022-07-29T00:21:10;7.50;;;4.50;;
18804;SDS011;9530;48.930;9.526;2022-07-29T00:23:38;7.97;;;4.73;;
18804;SDS011;9530;48.930;9.526;2022-07-29T00:26:04;5.30;;;4.43;;
18804;SDS011;9530;48.930;9.526;2022-07-29T00:28:31;4.53;;;4.03;;
18804;SDS011;9530;48.930;9.526;2022-07-29T00:30:58;7.03;;;4.20;;
18804;SDS011;9530;48.930;9.526;2022-07-29T00:33:25;4.80;;;4.07;;
18804;SDS011;9530;48.930;9.526;2022-07-29T00:35:51;5.50;;;4.13;;
18804;SDS011;9530;48.930;9.526;2022-07-29T00:38:18;4.77;;;4.00;;
18804;SDS011;9530;48.930;9.526;2022-07-29T00:40:47;5.90;;;4.07;;
18804;SDS011;9530;48.930;9.526;2022-07-29T00:43:14;5.77;;;4.27;;
18804;SDS011;9530;48.930;9.526;2022-07-29T00:45:41;4.97;;;3.97;;
18804;SDS011;9530;48.930;9.526;2022-07-29T00:48:07;6.17;;;4.07;;
18804;SDS011;9530;48.930;9.526;2022-07-29T00:50:34;5.67;;;3.90;;
18804;SDS011;9530;48.930;9.526;2022-07-29T00:53:02;7.20;;;3.87;;
18804;SDS011;9530;48.930;9.526;2022-07-29T00:55:29;4.17;;;3.77;;
18804;SDS011;9530;48.930;9.526;2022-07-29T00:57:58;5.67;;;4.43;;
18804;SDS011;9530;48.930;9.526;2022-07-29T01:00:26;5.37;;;3.87;;
18804;SDS011;9530;48.930;9.526;2022-07-29T01:02:54;5.40;;;4.30;;
18804;SDS011;9530;48.930;9.526;2022-07-29T01:05:22;5.30;;;3.90;;
18804;SDS011;9530;48.930;9.526;2022-07-29T01:07:51;7.87;;;4.40;;
18804;SDS011;9530;48.930;9.526;2022-07-29T01:10:19;4.50;;;4.10;;
18804;SDS011;9530;48.930;9.526;2022-07-29T01:12:48;7.33;;;4.60;;
18804;SDS011;9530;48.930;9.526;2022-07-29T01:15:18;4.87;;;3.80;;
18804;SDS011;9530;48.930;9.526;2022-07-29T01:17:46;5.33;;;3.97;;
18804;SDS011;9530;48.930;9.526;2022-07-29T01:20:21;4.53;;;3.90;;
18804;SDS011;9530;48.930;9.526;2022-07-29T01:23:01;5.60;;;4.50;;
18804;SDS011;9530;48.930;9.526;2022-07-29T01:25:53;4.53;;;4.03;;
18804;SDS011;9530;48.930;9.526;2022-07-29T01:28:38;6.00;;;4.40;;
18804;SDS011;9530;48.930;9.526;2022-07-29T01:31:10;6.03;;;4.50;;
18804;SDS011;9530;48.930;9.526;2022-07-29T01:33:41;4.73;;;4.23;;
18804;SDS011;9530;48.930;9.526;2022-07-29T01:36:17;4.30;;;3.90;;
18804;SDS011;9530;48.930;9.526;2022-07-29T01:38:50;6.67;;;4.20;;
18804;SDS011;9530;48.930;9.526;2022-07-29T01:41:23;5.30;;;3.97;;
18804;SDS011;9530;48.930;9.526;2022-07-29T01:43:56;4.83;;;4.10;;
18804;SDS011;9530;48.930;9.526;2022-07-29T01:46:27;5.87;;;4.20;;
18804;SDS011;9530;48.930;9.526;2022-07-29T01:49:00;5.13;;;4.50;;
18804;SDS011;9530;48.930;9.526;2022-07-29T01:51:33;6.67;;;4.40;;
18804;SDS011;9530;48.930;9.526;2022-07-29T01:54:06;5.80;;;4.50;;
18804;SDS011;9530;48.930;9.526;2022-07-29T01:56:38;5.67;;;4.10;;
18804;SDS011;9530;48.930;9.526;2022-07-29T01:59:07;4.90;;;4.40;;
18804;SDS011;9530;48.930;9.526;2022-07-29T02:01:35;5.90;;;3.80;;
18804;SDS011;9530;48.930;9.526;2022-07-29T02:04:03;5.60;;;4.13;;
18804;SDS011;9530;48.930;9.526;2022-07-29T02:06:33;4.80;;;4.20;;
18804;SDS011;9530;48.930;9.526;2022-07-29T02:09:03;5.43;;;4.10;;
18804;SDS011;9530;48.930;9.526;2022-07-29T02:11:31;7.60;;;3.87;;
18804;SDS011;9530;48.930;9.526;2022-07-29T02:14:00;6.53;;;3.80;;
18804;SDS011;9530;48.930;9.526;2022-07-29T02:16:31;5.40;;;4.10;;
18804;SDS011;9530;48.930;9.526;2022-07-29T02:19:00;7.03;;;3.60;;
18804;SDS011;9530;48.930;9.526;2022-07-29T02:21:28;5.83;;;3.87;;
18804;SDS011;9530;48.930;9.526;2022-07-29T02:23:58;7.33;;;3.90;;
18804;SDS011;9530;48.930;9.526;2022-07-29T02:26:26;6.93;;;3.93;;
18804;SDS011;9530;48.930;9.526;2022-07-29T02:28:55;6.87;;;3.97;;
18804;SDS011;9530;48.930;9.526;2022-07-29T02:31:25;8.37;;;4.30;;
18804;SDS011;9530;48.930;9.526;2022-07-29T02:33:56;4.40;;;4.00;;
18804;SDS011;9530;48.930;9.526;2022-07-29T02:36:24;7.77;;;3.87;;
18804;SDS011;9530;48.930;9.526;2022-07-29T02:38:52;5.60;;;4.00;;
18804;SDS011;9530;48.930;9.526;2022-07-29T02:41:23;6.00;;;4.00;;
18804;SDS011;9530;48.930;9.526;2022-07-29T02:43:54;6.00;;;3.70;;
18804;SDS011;9530;48.930;9.526;2022-07-29T02:46:26;5.90;;;4.10;;
18804;SDS011;9530;48.930;9.526;2022-07-29T02:48:59;4.33;;;3.90;;
18804;SDS011;9530;48.930;9.526;2022-07-29T02:51:33;8.37;;;3.90;;
18804;SDS011;9530;48.930;9.526;2022-07-29T02:54:06;5.97;;;3.97;;
18804;SDS011;9530;48.930;9.526;2022-07-29T02:56:35;4.80;;;4.23;;
18804;SDS011;9530;48.930;9.526;2022-07-29T02:59:05;7.50;;;4.33;;
18804;SDS011;9530;48.930;9.526;2022-07-29T03:01:35;4.73;;;4.33;;
18804;SDS011;9530;48.930;9.526;2022-07-29T03:04:09;4.90;;;4.13;;
18804;SDS011;9530;48.930;9.526;2022-07-29T03:06:37;4.73;;;4.30;;
18804;SDS011;9530;48.930;9.526;2022-07-29T03:09:05;5.83;;;4.10;;
18804;SDS011;9530;48.930;9.526;2022-07-29T03:11:33;4.40;;;4.00;;
18804;SDS011;9530;48.930;9.526;2022-07-29T03:14:00;5.93;;;4.80;;
18804;SDS011;9530;48.930;9.526;2022-07-29T03:16:28;4.83;;;3.87;;
18804;SDS011;9530;48.930;9.526;2022-07-29T03:18:55;4.67;;;3.67;;
18804;SDS011;9530;48.930;9.526;2022-07-29T03:21:23;4.47;;;3.63;;
18804;SDS011;9530;48.930;9.526;2022-07-29T03:23:50;5.13;;;3.90;;
18804;SDS011;9530;48.930;9.526;2022-07-29T03:26:16;5.23;;;4.27;;
18804;SDS011;9530;48.930;9.526;2022-07-29T03:28:44;4.83;;;3.77;;
18804;SDS011;9530;48.930;9.526;2022-07-29T03:31:11;3.80;;;3.40;;
18804;SDS011;9530;48.930;9.526;2022-07-29T03:33:38;6.10;;;3.60;;
18804;SDS011;9530;48.930;9.526;2022-07-29T03:36:04;4.17;;;3.50;;
18804;SDS011;9530;48.930;9.526;2022-07-29T03:38:33;6.67;;;3.10;;
18804;SDS011;9530;48.930;9.526;2022-07-29T03:41:03;4.70;;;3.70;;
18804;SDS011;9530;48.930;9.526;2022-07-29T03:43:32;5.03;;;3.50;;
18804;SDS011;9530;48.930;9.526;2022-07-29T03:46:02;4.40;;;3.37;;
18804;SDS011;9530;48.930;9.526;2022-07-29T03:48:32;4.43;;;3.70;;
18804;SDS011;9530;48.930;9.526;2022-07-29T03:51:01;4.27;;;3.07;;
18804;SDS011;9530;48.930;9.526;2022-07-29T03:53:28;5.40;;;3.47;;
18804;SDS011;9530;48.930;9.526;2022-07-29T03:55:58;4.30;;;3.40;;
18804;SDS011;9530;48.930;9.526;2022-07-29T03:58:26;4.10;;;3.27;;
18804;SDS011;9530;48.930;9.526;2022-07-29T04:00:54;4.20;;;3.60;;
18804;SDS011;9530;48.930;9.526;2022-07-29T04:03:21;5.47;;;4.63;;
18804;SDS011;9530;48.930;9.526;2022-07-29T04:05:57;13.23;;;9.87;;
18804;SDS011;9530;48.930;9.526;2022-07-29T04:08:25;8.73;;;6.80;;
18804;SDS011;9530;48.930;9.526;2022-07-29T04:10:52;10.80;;;6.83;;
18804;SDS011;9530;48.930;9.526;2022-07-29T04:13:20;9.47;;;6.73;;
18804;SDS011;9530;48.930;9.526;2022-07-29T04:15:47;9.10;;;7.70;;
18804;SDS011;9530;48.930;9.526;2022-07-29T04:18:13;51.37;;;37.13;;
18804;SDS011;9530;48.930;9.526;2022-07-29T04:20:40;40.33;;;32.07;;
18804;SDS011;9530;48.930;9.526;2022-07-29T04:23:07;29.40;;;20.87;;
18804;SDS011;9530;48.930;9.526;2022-07-29T04:25:36;24.93;;;18.17;;
18804;SDS011;9530;48.930;9.526;2022-07-29T04:28:03;19.90;;;16.03;;
18804;SDS011;9530;48.930;9.526;2022-07-29T04:30:31;20.23;;;15.83;;
18804;SDS011;9530;48.930;9.526;2022-07-29T04:32:59;17.97;;;13.70;;
18804;SDS011;9530;48.930;9.526;2022-07-29T04:35:26;10.90;;;9.00;;
18804;SDS011;9530;48.930;9.526;2022-07-29T04:37:53;9.97;;;7.23;;
18804;SDS011;9530;48.930;9.526;2022-07-29T04:40:20;6.00;;;5.20;;
18804;SDS011;9530;48.930;9.526;2022-07-29T04:42:47;6.43;;;5.03;;
18804;SDS011;9530;48.930;9.526;2022-07-29T04:45:13;6.17;;;4.50;;
18804;SDS011;9530;48.930;9.526;2022-07-29T04:47:41;6.90;;;5.83;;
18804;SDS011;9530;48.930;9.526;2022-07-29T04:50:08;7.03;;;6.33;;
18804;SDS011;9530;48.930;9.526;2022-07-29T04:52:36;8.00;;;5.73;;
18804;SDS011;9530;48.930;9.526;2022-07-29T04:55:03;6.73;;;5.50;;
18804;SDS011;9530;48.930;9.526;2022-07-29T04:57:31;5.97;;;4.60;;
18804;SDS011;9530;48.930;9.526;2022-07-29T04:59:57;5.90;;;5.30;;
18804;SDS011;9530;48.930;9.526;2022-07-29T05:02:24;8.47;;;5.53;;
18804;SDS011;9530;48.930;9.526;2022-07-29T05:04:52;8.27;;;5.13;;
18804;SDS011;9530;48.930;9.526;2022-07-29T05:07:19;6.13;;;4.93;;
18804;SDS011;9530;48.930;9.526;2022-07-29T05:09:46;6.33;;;5.07;;
18804;SDS011;9530;48.930;9.526;2022-07-29T05:12:12;5.80;;;5.20;;
18804;SDS011;9530;48.930;9.526;2022-07-29T05:14:39;5.80;;;5.10;;
18804;SDS011;9530;48.930;9.526;2022-07-29T05:17:06;6.17;;;5.03;;
18804;SDS011;9530;48.930;9.526;2022-07-29T05:19:33;5.57;;;5.07;;
18804;SDS011;9530;48.930;9.526;2022-07-29T05:22:01;5.20;;;4.70;;
18804;SDS011;9530;48.930;9.526;2022-07-29T05:24:27;5.80;;;4.50;;
18804;SDS011;9530;48.930;9.526;2022-07-29T05:26:54;5.07;;;4.57;;
18804;SDS011;9530;48.930;9.526;2022-07-29T05:29:21;5.73;;;4.10;;
18804;SDS011;9530;48.930;9.526;2022-07-29T05:31:47;5.30;;;4.30;;
18804;SDS011;9530;48.930;9.526;2022-07-29T05:34:15;8.00;;;4.67;;
18804;SDS011;9530;48.930;9.526;2022-07-29T05:36:43;4.73;;;4.23;;
18804;SDS011;9530;48.930;9.526;2022-07-29T05:39:11;5.00;;;4.50;;
18804;SDS011;9530;48.930;9.526;2022-07-29T05:41:38;5.37;;;4.60;;
18804;SDS011;9530;48.930;9.526;2022-07-29T05:44:05;5.27;;;4.30;;
18804;SDS011;9530;48.930;9.526;2022-07-29T05:46:32;5.87;;;4.50;;
18804;SDS011;9530;48.930;9.526;2022-07-29T05:48:58;4.53;;;4.03;;
18804;SDS011;9530;48.930;9.526;2022-07-29T05:51:25;4.67;;;3.93;;
18804;SDS011;9530;48.930;9.526;2022-07-29T05:53:52;5.17;;;3.80;;
18804;SDS011;9530;48.930;9.526;2022-07-29T05:56:20;3.53;;;3.23;;
18804;SDS011;9530;48.930;9.526;2022-07-29T05:58:47;4.23;;;3.30;;
18804;SDS011;9530;48.930;9.526;2022-07-29T06:01:13;5.40;;;3.20;;
18804;SDS011;9530;48.930;9.526;2022-07-29T06:03:41;3.20;;;2.90;;
18804;SDS011;9530;48.930;9.526;2022-07-29T06:06:08;5.07;;;3.30;;
18804;SDS011;9530;48.930;9.526;2022-07-29T06:08:35;6.13;;;2.93;;
18804;SDS011;9530;48.930;9.526;2022-07-29T06:11:02;4.97;;;2.70;;
18804;SDS011;9530;48.930;9.526;2022-07-29T06:13:31;6.23;;;2.87;;
18804;SDS011;9530;48.930;9.526;2022-07-29T06:15:58;3.70;;;2.53;;
18804;SDS011;9530;48.930;9.526;2022-07-29T06:18:24;3.23;;;2.40;;
18804;SDS011;9530;48.930;9.526;2022-07-29T06:20:52;2.53;;;2.33;;
18804;SDS011;9530;48.930;9.526;2022-07-29T06:23:19;3.07;;;2.50;;
18804;SDS011;9530;48.930;9.526;2022-07-29T06:25:46;3.10;;;2.40;;
18804;SDS011;9530;48.930;9.526;2022-07-29T06:28:13;2.50;;;2.30;;
18804;SDS011;9530;48.930;9.526;2022-07-29T06:30:41;2.60;;;2.30;;
18804;SDS011;9530;48.930;9.526;2022-07-29T06:33:08;3.53;;;2.50;;
18804;SDS011;9530;48.930;9.526;2022-07-29T06:35:35;2.37;;;2.00;;
18804;SDS011;9530;48.930;9.526;2022-07-29T06:38:03;2.63;;;2.10;;
18804;SDS011;9530;48.930;9.526;2022-07-29T06:40:30;4.60;;;2.30;;
18804;SDS011;9530;48.930;9.526;2022-07-29T06:43:14;2.47;;;2.23;;
18804;SDS011;9530;48.930;9.526;2022-07-29T06:45:42;3.47;;;2.20;;
18804;SDS011;9530;48.930;9.526;2022-07-29T06:48:09;2.83;;;2.20;;
18804;SDS011;9530;48.930;9.526;2022-07-29T06:50:36;3.23;;;2.50;;
18804;SDS011;9530;48.930;9.526;2022-07-29T06:53:02;3.20;;;2.40;;
18804;SDS011;9530;48.930;9.526;2022-07-29T06:55:29;4.23;;;2.37;;
18804;SDS011;9530;48.930;9.526;2022-07-29T06:57:56;3.43;;;2.50;;
18804;SDS011;9530;48.930;9.526;2022-07-29T07:00:23;3.37;;;2.43;;
18804;SDS011;9530;48.930;9.526;2022-07-29T07:02:51;2.37;;;1.87;;
18804;SDS011;9530;48.930;9.526;2022-07-29T07:05:17;4.40;;;2.30;;
18804;SDS011;9530;48.930;9.526;2022-07-29T07:07:44;2.43;;;2.23;;
18804;SDS011;9530;48.930;9.526;2022-07-29T07:10:11;3.93;;;2.23;;
18804;SDS011;9530;48.930;9.526;2022-07-29T07:12:37;3.27;;;2.37;;
18804;SDS011;9530;48.930;9.526;2022-07-29T07:15:04;4.13;;;2.43;;
18804;SDS011;9530;48.930;9.526;2022-07-29T07:17:32;4.97;;;2.37;;
18804;SDS011;9530;48.930;9.526;2022-07-29T07:20:00;4.13;;;2.47;;
18804;SDS011;9530;48.930;9.526;2022-07-29T07:22:27;3.53;;;2.47;;
18804;SDS011;9530;48.930;9.526;2022-07-29T07:24:53;2.30;;;2.10;;
18804;SDS011;9530;48.930;9.526;2022-07-29T07:27:20;2.60;;;2.20;;
18804;SDS011;9530;48.930;9.526;2022-07-29T07:29:47;2.50;;;1.90;;
18804;SDS011;9530;48.930;9.526;2022-07-29T07:32:13;3.10;;;2.13;;
18804;SDS011;9530;48.930;9.526;2022-07-29T07:34:41;6.00;;;2.20;;
18804;SDS011;9530;48.930;9.526;2022-07-29T07:37:09;2.40;;;2.13;;
18804;SDS011;9530;48.930;9.526;2022-07-29T07:39:36;2.30;;;2.10;;
18804;SDS011;9530;48.930;9.526;2022-07-29T07:42:03;2.87;;;1.80;;
18804;SDS011;9530;48.930;9.526;2022-07-29T07:44:29;2.50;;;2.30;;
18804;SDS011;9530;48.930;9.526;2022-07-29T07:46:56;3.20;;;2.37;;
18804;SDS011;9530;48.930;9.526;2022-07-29T07:49:23;2.90;;;2.40;;
18804;SDS011;9530;48.930;9.526;2022-07-29T07:51:50;3.97;;;2.30;;
18804;SDS011;9530;48.930;9.526;2022-07-29T07:54:18;2.60;;;2.40;;
18804;SDS011;9530;48.930;9.526;2022-07-29T07:56:45;4.33;;;2.30;;
18804;SDS011;9530;48.930;9.526;2022-07-29T07:59:13;2.67;;;2.17;;
18804;SDS011;9530;48.930;9.526;2022-07-29T08:01:40;2.87;;;2.10;;
18804;SDS011;9530;48.930;9.526;2022-07-29T08:04:07;4.30;;;2.30;;
18804;SDS011;9530;48.930;9.526;2022-07-29T08:06:33;3.43;;;2.37;;
18804;SDS011;9530;48.930;9.526;2022-07-29T08:09:02;2.50;;;2.30;;
18804;SDS011;9530;48.930;9.526;2022-07-29T08:11:30;2.97;;;2.50;;
18804;SDS011;9530;48.930;9.526;2022-07-29T08:13:57;2.30;;;2.10;;
18804;SDS011;9530;48.930;9.526;2022-07-29T08:16:26;2.83;;;2.20;;
18804;SDS011;9530;48.930;9.526;2022-07-29T08:18:53;2.60;;;2.40;;
18804;SDS011;9530;48.930;9.526;2022-07-29T08:21:22;6.13;;;2.40;;
18804;SDS011;9530;48.930;9.526;2022-07-29T08:23:49;3.47;;;2.30;;
18804;SDS011;9530;48.930;9.526;2022-07-29T08:26:18;8.73;;;2.30;;
18804;SDS011;9530;48.930;9.526;2022-07-29T08:28:47;3.93;;;2.40;;
18804;SDS011;9530;48.930;9.526;2022-07-29T08:31:15;3.47;;;2.57;;
18804;SDS011;9530;48.930;9.526;2022-07-29T08:33:42;4.53;;;2.37;;
18804;SDS011;9530;48.930;9.526;2022-07-29T08:36:09;3.03;;;2.40;;
18804;SDS011;9530;48.930;9.526;2022-07-29T08:38:37;3.13;;;2.63;;
18804;SDS011;9530;48.930;9.526;2022-07-29T08:41:04;4.47;;;2.47;;
18804;SDS011;9530;48.930;9.526;2022-07-29T08:43:31;3.60;;;2.77;;
18804;SDS011;9530;48.930;9.526;2022-07-29T08:46:01;3.87;;;2.60;;
18804;SDS011;9530;48.930;9.526;2022-07-29T08:48:28;2.83;;;2.30;;
18804;SDS011;9530;48.930;9.526;2022-07-29T08:50:55;3.17;;;2.50;;
18804;SDS011;9530;48.930;9.526;2022-07-29T08:53:23;3.80;;;2.53;;
18804;SDS011;9530;48.930;9.526;2022-07-29T08:55:52;4.73;;;2.50;;
18804;SDS011;9530;48.930;9.526;2022-07-29T08:58:20;2.90;;;2.23;;
18804;SDS011;9530;48.930;9.526;2022-07-29T09:00:49;4.30;;;2.60;;
18804;SDS011;9530;48.930;9.526;2022-07-29T09:03:19;4.13;;;2.43;;
18804;SDS011;9530;48.930;9.526;2022-07-29T09:05:48;2.87;;;2.57;;
18804;SDS011;9530;48.930;9.526;2022-07-29T09:08:16;2.83;;;2.40;;
18804;SDS011;9530;48.930;9.526;2022-07-29T09:10:43;3.17;;;2.50;;
18804;SDS011;9530;48.930;9.526;2022-07-29T09:13:10;4.90;;;2.50;;
18804;SDS011;9530;48.930;9.526;2022-07-29T09:15:37;4.10;;;2.43;;
18804;SDS011;9530;48.930;9.526;2022-07-29T09:18:04;5.23;;;2.70;;
18804;SDS011;9530;48.930;9.526;2022-07-29T09:20:32;3.17;;;2.40;;
18804;SDS011;9530;48.930;9.526;2022-07-29T09:23:13;3.60;;;2.83;;
18804;SDS011;9530;48.930;9.526;2022-07-29T09:25:40;6.30;;;3.00;;
18804;SDS011;9530;48.930;9.526;2022-07-29T09:28:07;6.67;;;3.03;;
18804;SDS011;9530;48.930;9.526;2022-07-29T09:30:35;4.37;;;3.00;;
18804;SDS011;9530;48.930;9.526;2022-07-29T09:33:05;5.07;;;2.80;;
18804;SDS011;9530;48.930;9.526;2022-07-29T09:35:33;5.40;;;2.70;;
18804;SDS011;9530;48.930;9.526;2022-07-29T09:38:09;4.93;;;2.67;;
18804;SDS011;9530;48.930;9.526;2022-07-29T09:40:37;3.50;;;2.90;;
18804;SDS011;9530;48.930;9.526;2022-07-29T09:43:09;5.07;;;2.83;;
18804;SDS011;9530;48.930;9.526;2022-07-29T09:45:37;6.50;;;2.80;;
18804;SDS011;9530;48.930;9.526;2022-07-29T09:48:12;8.53;;;3.30;;
18804;SDS011;9530;48.930;9.526;2022-07-29T09:50:42;3.10;;;2.50;;
18804;SDS011;9530;48.930;9.526;2022-07-29T09:53:11;3.17;;;2.60;;
18804;SDS011;9530;48.930;9.526;2022-07-29T09:55:47;5.27;;;3.27;;
18804;SDS011;9530;48.930;9.526;2022-07-29T09:58:15;6.30;;;3.13;;
18804;SDS011;9530;48.930;9.526;2022-07-29T10:00:43;4.93;;;3.07;;
18804;SDS011;9530;48.930;9.526;2022-07-29T10:03:11;3.53;;;2.50;;
18804;SDS011;9530;48.930;9.526;2022-07-29T10:05:38;5.40;;;3.10;;
18804;SDS011;9530;48.930;9.526;2022-07-29T10:08:08;4.00;;;2.60;;
18804;SDS011;9530;48.930;9.526;2022-07-29T10:10:37;6.40;;;2.90;;
18804;SDS011;9530;48.930;9.526;2022-07-29T10:13:06;3.50;;;2.70;;
18804;SDS011;9530;48.930;9.526;2022-07-29T10:15:35;4.27;;;3.00;;
18804;SDS011;9530;48.930;9.526;2022-07-29T10:18:05;3.80;;;2.70;;
18804;SDS011;9530;48.930;9.526;2022-07-29T10:20:33;6.13;;;2.93;;
18804;SDS011;9530;48.930;9.526;2022-07-29T10:23:00;4.33;;;2.73;;
18804;SDS011;9530;48.930;9.526;2022-07-29T10:25:29;5.17;;;2.77;;
18804;SDS011;9530;48.930;9.526;2022-07-29T10:27:56;4.90;;;2.80;;
18804;SDS011;9530;48.930;9.526;2022-07-29T10:30:24;7.00;;;3.30;;
18804;SDS011;9530;48.930;9.526;2022-07-29T10:32:59;6.73;;;3.23;;
18804;SDS011;9530;48.930;9.526;2022-07-29T10:35:44;8.00;;;2.67;;
18804;SDS011;9530;48.930;9.526;2022-07-29T10:38:32;3.57;;;2.80;;
18804;SDS011;9530;48.930;9.526;2022-07-29T10:41:13;4.87;;;3.40;;
18804;SDS011;9530;48.930;9.526;2022-07-29T10:43:53;5.57;;;3.30;;
18804;SDS011;9530;48.930;9.526;2022-07-29T10:46:22;5.83;;;3.13;;
18804;SDS011;9530;48.930;9.526;2022-07-29T10:49:10;4.63;;;3.00;;
18804;SDS011;9530;48.930;9.526;2022-07-29T10:54:36;4.63;;;3.07;;
18804;SDS011;9530;48.930;9.526;2022-07-29T10:57:24;4.73;;;3.00;;
18804;SDS011;9530;48.930;9.526;2022-07-29T11:02:57;8.13;;;3.00;;
18804;SDS011;9530;48.930;9.526;2022-07-29T11:05:25;7.00;;;3.23;;
18804;SDS011;9530;48.930;9.526;2022-07-29T11:10:45;4.10;;;3.10;;
18804;SDS011;9530;48.930;9.526;2022-07-29T11:13:14;5.93;;;3.03;;
18804;SDS011;9530;48.930;9.526;2022-07-29T11:16:18;5.90;;;3.60;;
18804;SDS011;9530;48.930;9.526;2022-07-29T11:21:45;4.30;;;3.27;;
18804;SDS011;9530;48.930;9.526;2022-07-29T11:24:15;6.67;;;3.53;;
18804;SDS011;9530;48.930;9.526;2022-07-29T11:26:43;6.20;;;3.33;;
18804;SDS011;9530;48.930;9.526;2022-07-29T11:29:17;4.40;;;3.47;;
18804;SDS011;9530;48.930;9.526;2022-07-29T11:31:47;4.57;;;3.20;;
18804;SDS011;9530;48.930;9.526;2022-07-29T11:34:19;5.17;;;3.33;;
18804;SDS011;9530;48.930;9.526;2022-07-29T11:39:47;7.77;;;3.10;;
18804;SDS011;9530;48.930;9.526;2022-07-29T11:42:39;6.87;;;3.77;;
18804;SDS011;9530;48.930;9.526;2022-07-29T11:45:09;4.53;;;3.37;;
18804;SDS011;9530;48.930;9.526;2022-07-29T11:47:39;3.97;;;3.47;;
18804;SDS011;9530;48.930;9.526;2022-07-29T11:50:07;5.50;;;3.30;;
18804;SDS011;9530;48.930;9.526;2022-07-29T11:52:36;6.23;;;3.37;;
18804;SDS011;9530;48.930;9.526;2022-07-29T11:55:08;5.43;;;3.30;;
18804;SDS011;9530;48.930;9.526;2022-07-29T11:57:36;6.30;;;3.80;;
18804;SDS011;9530;48.930;9.526;2022-07-29T12:00:03;8.40;;;3.30;;
18804;SDS011;9530;48.930;9.526;2022-07-29T12:02:42;6.10;;;3.40;;
18804;SDS011;9530;48.930;9.526;2022-07-29T12:05:09;6.63;;;3.57;;
18804;SDS011;9530;48.930;9.526;2022-07-29T12:07:37;8.50;;;3.30;;
18804;SDS011;9530;48.930;9.526;2022-07-29T12:10:05;11.33;;;4.57;;
18804;SDS011;9530;48.930;9.526;2022-07-29T12:12:32;12.07;;;5.20;;
18804;SDS011;9530;48.930;9.526;2022-07-29T12:15:09;7.17;;;4.50;;
18804;SDS011;9530;48.930;9.526;2022-07-29T12:17:42;9.23;;;4.77;;
18804;SDS011;9530;48.930;9.526;2022-07-29T12:20:09;6.60;;;4.43;;
18804;SDS011;9530;48.930;9.526;2022-07-29T12:22:38;7.53;;;4.77;;
18804;SDS011;9530;48.930;9.526;2022-07-29T12:25:09;6.03;;;4.10;;
18804;SDS011;9530;48.930;9.526;2022-07-29T12:27:39;5.77;;;3.77;;
18804;SDS011;9530;48.930;9.526;2022-07-29T12:30:08;5.80;;;3.90;;
18804;SDS011;9530;48.930;9.526;2022-07-29T12:32:37;7.47;;;4.17;;
18804;SDS011;9530;48.930;9.526;2022-07-29T12:35:07;5.77;;;4.00;;
18804;SDS011;9530;48.930;9.526;2022-07-29T12:37:36;6.60;;;3.80;;
18804;SDS011;9530;48.930;9.526;2022-07-29T12:40:04;5.00;;;3.90;;
18804;SDS011;9530;48.930;9.526;2022-07-29T12:42:32;5.77;;;4.00;;
18804;SDS011;9530;48.930;9.526;2022-07-29T12:45:00;5.17;;;4.00;;
18804;SDS011;9530;48.930;9.526;2022-07-29T12:47:27;5.77;;;3.70;;
18804;SDS011;9530;48.930;9.526;2022-07-29T12:50:08;5.30;;;3.27;;
18804;SDS011;9530;48.930;9.526;2022-07-29T12:52:36;5.43;;;3.70;;
18804;SDS011;9530;48.930;9.526;2022-07-29T12:55:03;6.57;;;3.60;;
18804;SDS011;9530;48.930;9.526;2022-07-29T12:57:31;4.60;;;3.73;;
18804;SDS011;9530;48.930;9.526;2022-07-29T13:00:08;5.00;;;3.47;;
18804;SDS011;9530;48.930;9.526;2022-07-29T13:02:36;6.47;;;3.43;;
18804;SDS011;9530;48.930;9.526;2022-07-29T13:05:04;6.80;;;3.50;;
18804;SDS011;9530;48.930;9.526;2022-07-29T13:07:34;5.00;;;3.47;;
18804;SDS011;9530;48.930;9.526;2022-07-29T13:10:12;5.63;;;3.37;;
18804;SDS011;9530;48.930;9.526;2022-07-29T13:15:29;4.40;;;2.90;;
18804;SDS011;9530;48.930;9.526;2022-07-29T13:17:56;3.43;;;3.07;;
18804;SDS011;9530;48.930;9.526;2022-07-29T13:20:23;5.20;;;3.00;;
18804;SDS011;9530;48.930;9.526;2022-07-29T13:22:53;4.13;;;3.00;;
18804;SDS011;9530;48.930;9.526;2022-07-29T13:25:23;3.60;;;2.80;;
18804;SDS011;9530;48.930;9.526;2022-07-29T13:27:51;4.10;;;3.10;;
18804;SDS011;9530;48.930;9.526;2022-07-29T13:30:19;4.20;;;3.50;;
18804;SDS011;9530;48.930;9.526;2022-07-29T13:32:46;7.37;;;3.10;;
18804;SDS011;9530;48.930;9.526;2022-07-29T13:35:13;3.87;;;2.63;;
18804;SDS011;9530;48.930;9.526;2022-07-29T13:37:40;5.67;;;2.63;;
18804;SDS011;9530;48.930;9.526;2022-07-29T13:40:09;3.07;;;2.37;;
18804;SDS011;9530;48.930;9.526;2022-07-29T13:42:36;3.27;;;2.50;;
18804;SDS011;9530;48.930;9.526;2022-07-29T13:45:04;3.17;;;2.23;;
18804;SDS011;9530;48.930;9.526;2022-07-29T13:47:32;2.80;;;2.50;;
18804;SDS011;9530;48.930;9.526;2022-07-29T13:49:59;6.97;;;2.30;;
18804;SDS011;9530;48.930;9.526;2022-07-29T13:52:26;6.23;;;2.60;;
18804;SDS011;9530;48.930;9.526;2022-07-29T13:54:53;4.30;;;2.70;;
18804;SDS011;9530;48.930;9.526;2022-07-29T13:57:21;4.77;;;2.67;;
18804;SDS011;9530;48.930;9.526;2022-07-29T13:59:47;5.13;;;2.50;;
18804;SDS011;9530;48.930;9.526;2022-07-29T14:02:16;3.43;;;2.40;;
18804;SDS011;9530;48.930;9.526;2022-07-29T14:04:43;5.37;;;2.80;;
18804;SDS011;9530;48.930;9.526;2022-07-29T14:07:09;2.83;;;2.30;;
18804;SDS011;9530;48.930;9.526;2022-07-29T14:09:36;4.27;;;2.23;;
18804;SDS011;9530;48.930;9.526;2022-07-29T14:12:04;3.77;;;2.27;;
18804;SDS011;9530;48.930;9.526;2022-07-29T14:14:32;2.13;;;1.93;;
18804;SDS011;9530;48.930;9.526;2022-07-29T14:17:01;3.47;;;2.07;;
18804;SDS011;9530;48.930;9.526;2022-07-29T14:19:28;2.60;;;2.03;;
18804;SDS011;9530;48.930;9.526;2022-07-29T14:21:54;2.30;;;1.97;;
18804;SDS011;9530;48.930;9.526;2022-07-29T14:24:21;4.70;;;2.20;;
18804;SDS011;9530;48.930;9.526;2022-07-29T14:26:48;2.47;;;2.27;;
18804;SDS011;9530;48.930;9.526;2022-07-29T14:29:14;2.33;;;1.90;;
18804;SDS011;9530;48.930;9.526;2022-07-29T14:31:42;2.63;;;2.07;;
18804;SDS011;9530;48.930;9.526;2022-07-29T14:34:09;3.50;;;2.23;;
18804;SDS011;9530;48.930;9.526;2022-07-29T14:36:35;4.33;;;2.27;;
18804;SDS011;9530;48.930;9.526;2022-07-29T14:39:02;3.90;;;2.50;;
18804;SDS011;9530;48.930;9.526;2022-07-29T14:41:29;7.07;;;2.40;;
18804;SDS011;9530;48.930;9.526;2022-07-29T14:43:56;4.20;;;2.50;;
18804;SDS011;9530;48.930;9.526;2022-07-29T14:46:25;4.20;;;2.30;;
18804;SDS011;9530;48.930;9.526;2022-07-29T14:48:53;3.83;;;2.47;;
18804;SDS011;9530;48.930;9.526;2022-07-29T14:51:20;2.93;;;2.53;;
18804;SDS011;9530;48.930;9.526;2022-07-29T14:53:47;4.20;;;2.50;;
18804;SDS011;9530;48.930;9.526;2022-07-29T14:56:13;4.47;;;2.40;;
18804;SDS011;9530;48.930;9.526;2022-07-29T14:58:40;3.90;;;2.73;;
18804;SDS011;9530;48.930;9.526;2022-07-29T15:01:07;5.37;;;2.80;;
18804;SDS011;9530;48.930;9.526;2022-07-29T15:03:33;6.43;;;2.70;;
18804;SDS011;9530;48.930;9.526;2022-07-29T15:06:01;4.70;;;2.83;;
18804;SDS011;9530;48.930;9.526;2022-07-29T15:08:28;3.63;;;2.70;;
18804;SDS011;9530;48.930;9.526;2022-07-29T15:10:55;3.80;;;2.80;;
18804;SDS011;9530;48.930;9.526;2022-07-29T15:13:24;4.23;;;2.90;;
18804;SDS011;9530;48.930;9.526;2022-07-29T15:15:51;5.60;;;2.67;;
18804;SDS011;9530;48.930;9.526;2022-07-29T15:18:17;5.07;;;2.70;;
18804;SDS011;9530;48.930;9.526;2022-07-29T15:20:44;3.33;;;2.57;;
18804;SDS011;9530;48.930;9.526;2022-07-29T15:23:12;4.43;;;2.93;;
18804;SDS011;9530;48.930;9.526;2022-07-29T15:25:39;2.77;;;2.37;;
18804;SDS011;9530;48.930;9.526;2022-07-29T15:28:06;4.50;;;2.90;;